Sea Hunter — 8PUY — position and weather

sailwx.info

Track history (hours):
 
Tides and Currents Weather Stations Pressure Air Temp Water Temp Dewpoint Dewpoint Depression Visibility Wind Speed Wind Dir Waves Ship Positions

Sea Hunter

Last reported at 2018-Feb-25 04:01 UTC. Time now 2018-Feb-25 04:08 UTC.
Position N 50°20' W 003°03'.

Length 87 m; draft 5.1 m.

Type: Cargo ship. MMSI: 314270000.

Date/timePositionNaut miles runAvg speedWind from/ knotsBaromVisibWave heightAir tempDewpointWater temp
2018-Feb-25 04:01N 50°20' W 003°03'5 9.5
2018-Feb-25 03:30N 50°22' W 002°56'5 9.3
2018-Feb-25 02:59N 50°23' W 002°48'4 9.1
2018-Feb-25 02:30N 50°24' W 002°42'4 9.0
2018-Feb-25 02:00N 50°25' W 002°35'21 9.0
2018-Feb-24 23:43N 50°28' W 002°03'2 9.8
2018-Feb-24 23:30N 50°29' W 001°60'610.3
2018-Feb-24 22:53N 50°29' W 001°49'1311.1
2018-Feb-24 21:42N 50°29' W 001°29'611.7
2018-Feb-24 21:11N 50°29' W 001°19'312.0
2018-Feb-24 20:59N 50°29' W 001°15'1811.8
2018-Feb-24 19:27N 50°31' W 000°47'611.4
2018-Feb-24 18:58N 50°31' W 000°39'510.6
2018-Feb-24 18:30N 50°31' W 000°31'510.4
2018-Feb-24 17:59N 50°32' W 000°22'510.2
2018-Feb-24 17:30N 50°32' W 000°15'5 9.7
2018-Feb-24 17:00N 50°32' W 000°07'5 9.2
2018-Feb-24 16:31N 50°33' E 000°00'5 9.2
2018-Feb-24 16:00N 50°34' E 000°07'5 9.0
2018-Feb-24 15:30N 50°35' E 000°14'4 8.6
2018-Feb-24 15:00N 50°36' E 000°21'4 8.6
2018-Feb-24 14:30N 50°37' E 000°27'4 8.8
2018-Feb-24 14:00N 50°39' E 000°34'5 9.3
2018-Feb-24 13:30N 50°41' E 000°40'510.0
2018-Feb-24 13:00N 50°44' E 000°46'610.5
2018-Feb-24 12:27N 50°48' E 000°54'911.0
2018-Feb-24 11:40N 50°53' E 001°05'311.5
2018-Feb-24 11:25N 50°55' E 001°08'510.8
2018-Feb-24 10:59N 50°58' E 001°14'511.1
2018-Feb-24 10:29N 51°01' E 001°21'510.5
2018-Feb-24 10:00N 51°04' E 001°27'5 9.6
2018-Feb-24 09:30N 51°07' E 001°33'4 8.6
2018-Feb-24 09:00N 51°09' E 001°39'4 8.3
2018-Feb-24 08:31N 51°12' E 001°44'5 8.8
2018-Feb-24 07:59N 51°16' E 001°48'4 8.5
2018-Feb-24 07:30N 51°19' E 001°52'4 8.5
2018-Feb-24 07:00N 51°23' E 001°56'4 8.5
2018-Feb-24 06:30N 51°25' E 002°02'5 9.3
2018-Feb-24 05:59N 51°23' E 002°09'5 9.3
2018-Feb-24 05:30N 51°21' E 002°16'4 8.8
2018-Feb-24 05:00N 51°22' E 002°23'5 9.5
2018-Feb-24 04:30N 51°23' E 002°30'5 9.8
2018-Feb-24 04:00N 51°23' E 002°38'5 8.9
2018-Feb-24 03:28N 51°22' E 002°46'510.2
2018-Feb-24 03:00N 51°21' E 002°53'510.8
2018-Feb-24 02:30N 51°22' E 003°02'611.0
2018-Feb-24 02:00N 51°23' E 003°11'510.8
2018-Feb-24 01:30N 51°24' E 003°19'611.6
2018-Feb-24 01:00N 51°25' E 003°28'510.5
2018-Feb-24 00:30N 51°25' E 003°36'511.1
2018-Feb-24 00:00N 51°23' E 003°44'612.0
2018-Feb-23 23:30N 51°21' E 003°53'612.0
2018-Feb-23 23:00N 51°26' E 003°59'611.1
2018-Feb-23 22:30N 51°22' E 004°05'5 9.6
2018-Feb-23 22:01N 51°23' E 004°13'510.6
2018-Feb-23 21:31N 51°18' E 004°17'4 7.4
2018-Feb-23 21:00N 51°15' E 004°20'3 6.2
2018-Feb-23 20:30N 51°13' E 004°23'2 4.4
2018-Feb-23 19:57N 51°11' E 004°20'0 0.0
2018-Feb-23 19:27N 51°11' E 004°20'0 0.0
2018-Feb-23 18:57N 51°11' E 004°20'0 0.0
2018-Feb-23 18:30N 51°11' E 004°20'0 0.0
2018-Feb-23 18:00N 51°11' E 004°20'0 0.0
2018-Feb-23 17:24N 51°11' E 004°20'0 0.0
2018-Feb-23 16:57N 51°11' E 004°20'0 0.0
2018-Feb-23 16:24N 51°11' E 004°20'0 0.0
2018-Feb-23 16:00N 51°11' E 004°20'0 0.0
2018-Feb-23 15:27N 51°11' E 004°20'0 0.0
2018-Feb-23 14:57N 51°11' E 004°20'0 0.0
2018-Feb-23 14:15N 51°11' E 004°20'0 0.0
2018-Feb-23 13:51N 51°11' E 004°20'0 0.0
2018-Feb-23 13:24N 51°11' E 004°20'0 0.0
2018-Feb-23 13:00N 51°11' E 004°20'0 0.0
2018-Feb-23 12:27N 51°11' E 004°20'0 0.0
2018-Feb-23 12:00N 51°11' E 004°20'0 0.0
2018-Feb-23 11:24N 51°11' E 004°20'0 0.0
2018-Feb-23 11:00N 51°11' E 004°20'0 0.0
2018-Feb-23 10:30N 51°11' E 004°20'0 0.0
2018-Feb-23 09:57N 51°11' E 004°20'0 0.0
2018-Feb-23 09:30N 51°11' E 004°20'0 0.0
2018-Feb-23 09:00N 51°11' E 004°20'0 0.0
2018-Feb-23 08:27N 51°11' E 004°20'0 0.0
2018-Feb-23 07:57N 51°11' E 004°20'0 0.0
2018-Feb-23 07:30N 51°11' E 004°20'0 0.0
2018-Feb-23 07:00N 51°11' E 004°20'0 0.0
2018-Feb-23 06:27N 51°11' E 004°20'0 0.0
2018-Feb-23 05:54N 51°11' E 004°20'0 0.0
2018-Feb-23 05:24N 51°11' E 004°20'0 0.0
2018-Feb-23 05:00N 51°11' E 004°20'0 0.0
2018-Feb-23 04:30N 51°11' E 004°20'0 0.0
2018-Feb-23 04:00N 51°11' E 004°20'0 0.0
2018-Feb-23 03:27N 51°11' E 004°20'0 0.0
2018-Feb-23 02:57N 51°11' E 004°20'0 0.0
2018-Feb-23 02:27N 51°11' E 004°20'0 0.0
2018-Feb-23 01:51N 51°11' E 004°20'0 0.0
2018-Feb-23 01:30N 51°11' E 004°20'0 0.0
2018-Feb-23 01:00N 51°11' E 004°20'0 0.0
2018-Feb-23 00:30N 51°11' E 004°20'0 0.0
2018-Feb-22 23:57N 51°11' E 004°20'0 0.0
2018-Feb-22 23:30N 51°11' E 004°20'0 0.0
2018-Feb-22 23:00N 51°11' E 004°20'0 0.0
2018-Feb-22 22:27N 51°11' E 004°20'0 0.0
2018-Feb-22 21:12N 51°11' E 004°20'0 0.0
2018-Feb-22 21:00N 51°11' E 004°20'0 0.0
2018-Feb-22 20:30N 51°11' E 004°20'1 1.7
2018-Feb-22 20:00N 51°12' E 004°20'3 6.2
2018-Feb-22 19:31N 51°14' E 004°24'4 8.0
2018-Feb-22 19:01N 51°17' E 004°19'510.2
2018-Feb-22 18:30N 51°21' E 004°15'5 9.6
2018-Feb-22 18:00N 51°22' E 004°07'612.6
2018-Feb-22 17:30N 51°26' E 003°60'713.1
2018-Feb-22 17:00N 51°21' E 003°53'612.3
2018-Feb-22 16:30N 51°23' E 003°43'611.5
2018-Feb-22 16:00N 51°25' E 003°35'611.6
2018-Feb-22 15:30N 51°25' E 003°26'612.3
2018-Feb-22 15:00N 51°24' E 003°16'611.1
2018-Feb-22 14:30N 51°22' E 003°08'510.4
2018-Feb-22 14:00N 51°22' E 002°59'5 9.8
2018-Feb-22 13:29N 51°21' E 002°51'5 8.9
2018-Feb-22 12:59N 51°21' E 002°44'4 8.8
2018-Feb-22 12:30N 51°21' E 002°37'3 5.7
2018-Feb-22 11:58N 51°22' E 002°32'3 6.2
2018-Feb-22 11:30N 51°21' E 002°28'2 5.0
2018-Feb-22 11:00N 51°20' E 002°24'3 5.2
2018-Feb-22 10:30N 51°19' E 002°20'3 6.1
2018-Feb-22 10:00N 51°18' E 002°16'3 6.3
2018-Feb-22 09:30N 51°16' E 002°12'3 5.8
2018-Feb-22 09:00N 51°14' E 002°08'3 5.9
2018-Feb-22 08:30N 51°13' E 002°04'3 6.5
2018-Feb-22 07:59N 51°11' E 001°59'5 8.5
2018-Feb-22 07:27N 51°09' E 001°53'4 8.5
2018-Feb-22 07:00N 51°07' E 001°48'4 8.8
2018-Feb-22 06:30N 51°03' E 001°44'5 9.4
2018-Feb-22 06:00N 50°60' E 001°38'4 7.9
2018-Feb-22 05:30N 50°57' E 001°34'4 8.5
2018-Feb-22 04:59N 50°53' E 001°30'6810.9
2018-Feb-21 22:45N 50°21' W 000°04'511.6
2018-Feb-21 22:19N 50°21' W 000°12'811.2
2018-Feb-21 21:39N 50°23' W 000°24'33 9.6
2018-Feb-21 18:12N 50°30' W 001°15'2 7.8
2018-Feb-21 17:55N 50°30' W 001°18'49 9.6
2018-Feb-21 12:45N 50°25' W 002°36'1011.8
2018-Feb-21 11:56N 50°22' W 002°50'511.7
2018-Feb-21 11:30N 50°21' W 002°58'611.6
2018-Feb-21 11:00N 50°19' W 003°06'611.6
2018-Feb-21 10:30N 50°17' W 003°15'611.6
2018-Feb-21 10:00N 50°15' W 003°23'611.7
2018-Feb-21 09:30N 50°13' W 003°32'612.1
2018-Feb-21 09:00N 50°11' W 003°40'612.0
2018-Feb-21 08:30N 50°09' W 003°49'611.7
2018-Feb-21 08:00N 50°07' W 003°58'611.5
2018-Feb-21 07:30N 50°06' W 004°07'711.3
2018-Feb-21 06:53N 50°04' W 004°17'411.1
2018-Feb-21 06:30N 50°03' W 004°24'610.9
2018-Feb-21 06:00N 50°02' W 004°32'510.8
2018-Feb-21 05:30N 50°00' W 004°40'510.7
2018-Feb-21 05:00N 49°59' W 004°48'510.7
2018-Feb-21 04:30N 49°58' W 004°56'510.5
2018-Feb-21 04:00N 49°56' W 005°04'510.0
2018-Feb-21 03:30N 49°55' W 005°12'6 9.5
2018-Feb-21 02:49N 49°55' W 005°22'3 9.8
2018-Feb-21 02:30N 49°55' W 005°27'128 9.9
2018-Feb-20 13:31N 51°22' W 007°55'010.7
2018-Feb-20 13:30N 51°23' W 007°55'510.5
2018-Feb-20 13:00N 51°26' W 008°02'510.7
2018-Feb-20 12:30N 51°29' W 008°08'510.9
2018-Feb-20 12:00N 51°34' W 008°13'510.7
2018-Feb-20 11:30N 51°39' W 008°17'611.4
2018-Feb-20 11:00N 51°44' W 008°16'611.7
2018-Feb-20 10:30N 51°50' W 008°16'4 7.4
2018-Feb-20 10:00N 51°53' W 008°20'4 8.1
2018-Feb-20 09:30N 51°54' W 008°26'1 1.2
2018-Feb-20 09:00N 51°54' W 008°27'0 0.0
2018-Feb-20 08:29N 51°54' W 008°27'0 0.0
2018-Feb-20 07:56N 51°54' W 008°27'0 0.0
2018-Feb-20 07:29N 51°54' W 008°27'0 0.0
2018-Feb-20 06:59N 51°54' W 008°27'0 0.0
2018-Feb-20 06:29N 51°54' W 008°27'0 0.0
2018-Feb-20 05:59N 51°54' W 008°27'0 0.0
2018-Feb-20 05:29N 51°54' W 008°27'0 0.0
2018-Feb-20 04:59N 51°54' W 008°27'0 0.0
2018-Feb-20 04:29N 51°54' W 008°27'0 0.0
2018-Feb-20 03:59N 51°54' W 008°27'0 0.0
2018-Feb-20 03:29N 51°54' W 008°27'0 0.0
2018-Feb-20 02:59N 51°54' W 008°27'0 0.0
2018-Feb-20 02:26N 51°54' W 008°27'0 0.0
2018-Feb-20 01:59N 51°54' W 008°27'0 0.0
2018-Feb-20 01:29N 51°54' W 008°27'0 0.0
2018-Feb-20 00:59N 51°54' W 008°27'0 0.0
2018-Feb-20 00:29N 51°54' W 008°27'0 0.0
2018-Feb-19 23:59N 51°54' W 008°27'0 0.0
2018-Feb-19 23:29N 51°54' W 008°27'0 0.0
2018-Feb-19 22:59N 51°54' W 008°27'0 0.0
2018-Feb-19 22:26N 51°54' W 008°27'0 0.0
2018-Feb-19 21:59N 51°54' W 008°27'0 0.0
2018-Feb-19 21:23N 51°54' W 008°27'0 0.0
2018-Feb-19 20:59N 51°54' W 008°27'0 0.0
2018-Feb-19 20:29N 51°54' W 008°27'0 0.0
2018-Feb-19 19:56N 51°54' W 008°27'0 0.0
2018-Feb-19 19:29N 51°54' W 008°27'0 0.0
2018-Feb-19 18:59N 51°54' W 008°27'0 0.0
2018-Feb-19 18:29N 51°54' W 008°27'0 0.0
2018-Feb-19 17:59N 51°54' W 008°27'0 0.0
2018-Feb-19 17:29N 51°54' W 008°27'0 0.0
2018-Feb-19 16:59N 51°54' W 008°27'0 0.0
2018-Feb-19 16:29N 51°54' W 008°27'0 0.0
2018-Feb-19 15:59N 51°54' W 008°27'0 0.0
2018-Feb-19 15:29N 51°54' W 008°27'0 0.0
2018-Feb-19 14:59N 51°54' W 008°27'0 0.0
2018-Feb-19 14:20N 51°54' W 008°27'0 0.0
2018-Feb-19 13:59N 51°54' W 008°27'0 0.0
2018-Feb-19 13:29N 51°54' W 008°27'0 0.1
2018-Feb-19 12:59N 51°54' W 008°27'0 0.1
2018-Feb-19 12:29N 51°54' W 008°27'0 0.0
2018-Feb-19 11:59N 51°54' W 008°27'0 0.0
2018-Feb-19 11:29N 51°54' W 008°27'0 0.0
2018-Feb-19 10:59N 51°54' W 008°27'0 0.0
2018-Feb-19 10:29N 51°54' W 008°27'0 0.0
2018-Feb-19 09:59N 51°54' W 008°27'0 0.0
2018-Feb-19 09:29N 51°54' W 008°27'0 0.0
2018-Feb-19 08:59N 51°54' W 008°27'0 0.0
2018-Feb-19 08:23N 51°54' W 008°27'0 0.0
2018-Feb-19 07:59N 51°54' W 008°27'0 0.0
2018-Feb-19 07:29N 51°54' W 008°27'0 0.0
2018-Feb-19 06:59N 51°54' W 008°27'0 0.0
2018-Feb-19 06:29N 51°54' W 008°27'0 0.0
2018-Feb-19 05:59N 51°54' W 008°27'0 0.0
2018-Feb-19 05:29N 51°54' W 008°27'0 0.0
2018-Feb-19 04:59N 51°54' W 008°27'0 0.0
2018-Feb-19 04:26N 51°54' W 008°27'0 0.0
2018-Feb-19 03:59N 51°54' W 008°27'0 0.0
2018-Feb-19 03:26N 51°54' W 008°27'0 0.0
2018-Feb-19 02:59N 51°54' W 008°27'0 0.0
2018-Feb-19 02:29N 51°54' W 008°27'0 0.0
2018-Feb-19 01:59N 51°54' W 008°27'0 0.0
2018-Feb-19 01:29N 51°54' W 008°27'0 0.0
2018-Feb-19 00:59N 51°54' W 008°27'0 0.0
2018-Feb-19 00:29N 51°54' W 008°27'0 0.0
2018-Feb-18 23:59N 51°54' W 008°27'0 0.0
2018-Feb-18 23:26N 51°54' W 008°27'0 0.0
2018-Feb-18 22:56N 51°54' W 008°27'0 0.0
2018-Feb-18 22:26N 51°54' W 008°27'0 0.0
2018-Feb-18 21:59N 51°54' W 008°27'0 0.0
2018-Feb-18 21:29N 51°54' W 008°27'0 0.0
2018-Feb-18 20:56N 51°54' W 008°27'0 0.0
2018-Feb-18 20:26N 51°54' W 008°27'0 0.0
2018-Feb-18 19:56N 51°54' W 008°27'0 0.0
2018-Feb-18 19:29N 51°54' W 008°27'0 0.0
2018-Feb-18 18:59N 51°54' W 008°27'0 0.0
2018-Feb-18 18:29N 51°54' W 008°27'0 0.0
2018-Feb-18 17:59N 51°54' W 008°27'0 0.0
2018-Feb-18 17:29N 51°54' W 008°27'0 0.0
2018-Feb-18 16:59N 51°54' W 008°27'0 0.0
2018-Feb-18 16:26N 51°54' W 008°27'0 0.0
2018-Feb-18 15:59N 51°54' W 008°27'0 0.0
2018-Feb-18 15:29N 51°54' W 008°27'0 0.0
2018-Feb-18 14:59N 51°54' W 008°27'0 0.0
2018-Feb-18 14:29N 51°54' W 008°27'0 0.0
2018-Feb-18 13:59N 51°54' W 008°27'0 0.0
2018-Feb-18 13:29N 51°54' W 008°27'0 0.0
2018-Feb-18 12:59N 51°54' W 008°27'0 0.0
2018-Feb-18 12:29N 51°54' W 008°27'0 0.0
2018-Feb-18 11:59N 51°54' W 008°27'0 0.0
2018-Feb-18 11:29N 51°54' W 008°27'0 0.0
2018-Feb-18 10:59N 51°54' W 008°27'0 0.0
2018-Feb-18 10:29N 51°54' W 008°27'0 0.0
2018-Feb-18 09:56N 51°54' W 008°27'0 0.0
2018-Feb-18 09:29N 51°54' W 008°27'0 0.0
2018-Feb-18 08:56N 51°54' W 008°27'0 0.0
2018-Feb-18 08:29N 51°54' W 008°27'0 0.0
2018-Feb-18 07:59N 51°54' W 008°27'0 0.0
2018-Feb-18 07:29N 51°54' W 008°27'0 0.0
2018-Feb-18 06:56N 51°54' W 008°27'0 0.0
2018-Feb-18 06:29N 51°54' W 008°27'0 0.0
2018-Feb-18 05:59N 51°54' W 008°27'0 0.0
2018-Feb-18 05:29N 51°54' W 008°27'0 0.0
2018-Feb-18 04:59N 51°54' W 008°27'0 0.0
2018-Feb-18 04:29N 51°54' W 008°27'0 0.0
2018-Feb-18 03:59N 51°54' W 008°27'0 0.0
2018-Feb-18 03:29N 51°54' W 008°27'0 0.0
2018-Feb-18 02:59N 51°54' W 008°27'0 0.0
2018-Feb-18 02:29N 51°54' W 008°27'0 0.0
2018-Feb-18 01:59N 51°54' W 008°27'0 0.0
2018-Feb-18 01:29N 51°54' W 008°27'0 0.0
2018-Feb-18 00:59N 51°54' W 008°27'0 0.0
2018-Feb-18 00:29N 51°54' W 008°27'0 0.0
2018-Feb-17 23:59N 51°54' W 008°27'0 0.0
2018-Feb-17 23:29N 51°54' W 008°27'0 0.0
2018-Feb-17 22:59N 51°54' W 008°27'0 0.0
2018-Feb-17 22:29N 51°54' W 008°27'0 0.0
2018-Feb-17 21:59N 51°54' W 008°27'0 0.0
2018-Feb-17 21:29N 51°54' W 008°27'0 0.0
2018-Feb-17 20:56N 51°54' W 008°27'0 0.0
2018-Feb-17 20:29N 51°54' W 008°27'0 0.0
2018-Feb-17 19:56N 51°54' W 008°27'0 0.0
2018-Feb-17 19:26N 51°54' W 008°27'0 0.0
2018-Feb-17 18:56N 51°54' W 008°27'0 0.0
2018-Feb-17 18:26N 51°54' W 008°27'0 0.0
2018-Feb-17 17:56N 51°54' W 008°27'0 0.0
2018-Feb-17 17:29N 51°54' W 008°27'0 0.0
2018-Feb-17 16:59N 51°54' W 008°27'0 0.0
2018-Feb-17 16:29N 51°54' W 008°27'0 0.0
2018-Feb-17 15:59N 51°54' W 008°27'0 0.0
2018-Feb-17 15:29N 51°54' W 008°27'0 0.0
2018-Feb-17 14:59N 51°54' W 008°27'0 0.9
2018-Feb-17 14:30N 51°54' W 008°27'3 6.7
2018-Feb-17 14:00N 51°53' W 008°22'3 6.9
2018-Feb-17 13:31N 51°51' W 008°17'1 1.8
2018-Feb-17 12:59N 51°50' W 008°16'0 0.1
2018-Feb-17 12:29N 51°50' W 008°16'0 0.0
2018-Feb-17 11:59N 51°50' W 008°16'0 0.1
2018-Feb-17 11:29N 51°50' W 008°16'0 0.0
2018-Feb-17 10:59N 51°50' W 008°16'0 0.2
2018-Feb-17 10:29N 51°50' W 008°16'0 0.1
2018-Feb-17 09:59N 51°50' W 008°16'0 0.1
2018-Feb-17 09:29N 51°50' W 008°16'0 0.0
2018-Feb-17 09:00N 51°50' W 008°16'1 1.8
2018-Feb-17 08:31N 51°49' W 008°16'1 3.0
2018-Feb-17 08:01N 51°48' W 008°16'4 8.3
2018-Feb-17 07:30N 51°44' W 008°13'4 7.6
2018-Feb-17 07:00N 51°44' W 008°07'3 6.6
2018-Feb-17 06:30N 51°44' W 008°02'4 8.2
2018-Feb-17 06:00N 51°43' W 007°55'4 8.8
2018-Feb-17 05:30N 51°42' W 007°48'4 8.6
2018-Feb-17 05:00N 51°41' W 007°42'4 8.5
2018-Feb-17 04:30N 51°38' W 007°37'5 9.1
2018-Feb-17 04:00N 51°34' W 007°33'5 9.1
2018-Feb-17 03:30N 51°31' W 007°29'129 8.4
2018-Feb-16 12:07N 49°57' W 005°10'110.0
2018-Feb-16 11:58N 49°58' W 005°08'510.1
2018-Feb-16 11:26N 50°01' W 005°02'5 1.2
2018-Feb-16 07:29N 50°06' W 005°03'0 0.0
2018-Feb-16 06:59N 50°06' W 005°03'0 0.0
2018-Feb-16 06:17N 50°06' W 005°03'0 0.0
2018-Feb-15 22:04N 50°06' W 005°03'0 0.0
2018-Feb-15 20:25N 50°06' W 005°03'0 0.0
2018-Feb-15 18:49N 50°06' W 005°03'0 0.0
2018-Feb-15 18:28N 50°06' W 005°03'0 0.1
2018-Feb-15 17:52N 50°06' W 005°03'0 0.0
2018-Feb-15 17:28N 50°06' W 005°03'0 0.0
2018-Feb-15 16:49N 50°06' W 005°03'0 0.0
2018-Feb-15 16:28N 50°06' W 005°03'0 0.0
2018-Feb-15 15:16N 50°06' W 005°03'0 0.0
2018-Feb-15 14:55N 50°06' W 005°03'1 0.1
2018-Feb-15 09:50N 50°06' W 005°03'3 8.6
2018-Feb-15 09:27N 50°07' W 004°58'4 8.9
2018-Feb-15 08:58N 50°07' W 004°51'4 8.8
2018-Feb-15 08:30N 50°08' W 004°45'4 8.6
2018-Feb-15 08:01N 50°08' W 004°38'4 8.2
2018-Feb-15 07:30N 50°08' W 004°31'4 7.8
2018-Feb-15 07:00N 50°08' W 004°25'4 7.5
2018-Feb-15 06:29N 50°08' W 004°19'3 7.2
2018-Feb-15 06:00N 50°09' W 004°14'3 7.0
2018-Feb-15 05:30N 50°09' W 004°09'3 6.7
2018-Feb-15 05:00N 50°09' W 004°03'4 6.8
2018-Feb-15 04:30N 50°09' W 003°58'  
Track history (hours):
 
Tides and Currents Weather Stations Pressure Air Temp Water Temp Dewpoint Dewpoint Depression Visibility Wind Speed Wind Dir Waves Ship Positions

Sea Hunter

Last reported at 2018-Feb-25 04:01 UTC. Time now 2018-Feb-25 04:08 UTC.
Position N 50°20' W 003°03'.

Length 87 m; draft 5.1 m.

Type: Cargo ship. MMSI: 314270000.

Date/timePositionNaut miles runAvg speedWind from/ knotsBaromVisibWave heightAir tempDewpointWater temp
2018-Feb-25 04:01N 50°20' W 003°03'5 9.5
2018-Feb-25 03:30N 50°22' W 002°56'5 9.3
2018-Feb-25 02:59N 50°23' W 002°48'4 9.1
2018-Feb-25 02:30N 50°24' W 002°42'4 9.0
2018-Feb-25 02:00N 50°25' W 002°35'21 9.0
2018-Feb-24 23:43N 50°28' W 002°03'2 9.8
2018-Feb-24 23:30N 50°29' W 001°60'610.3
2018-Feb-24 22:53N 50°29' W 001°49'1311.1
2018-Feb-24 21:42N 50°29' W 001°29'611.7
2018-Feb-24 21:11N 50°29' W 001°19'312.0
2018-Feb-24 20:59N 50°29' W 001°15'1811.8
2018-Feb-24 19:27N 50°31' W 000°47'611.4
2018-Feb-24 18:58N 50°31' W 000°39'510.6
2018-Feb-24 18:30N 50°31' W 000°31'510.4
2018-Feb-24 17:59N 50°32' W 000°22'510.2
2018-Feb-24 17:30N 50°32' W 000°15'5 9.7
2018-Feb-24 17:00N 50°32' W 000°07'5 9.2
2018-Feb-24 16:31N 50°33' E 000°00'5 9.2
2018-Feb-24 16:00N 50°34' E 000°07'5 9.0
2018-Feb-24 15:30N 50°35' E 000°14'4 8.6
2018-Feb-24 15:00N 50°36' E 000°21'4 8.6
2018-Feb-24 14:30N 50°37' E 000°27'4 8.8
2018-Feb-24 14:00N 50°39' E 000°34'5 9.3
2018-Feb-24 13:30N 50°41' E 000°40'510.0
2018-Feb-24 13:00N 50°44' E 000°46'610.5
2018-Feb-24 12:27N 50°48' E 000°54'911.0
2018-Feb-24 11:40N 50°53' E 001°05'311.5
2018-Feb-24 11:25N 50°55' E 001°08'510.8
2018-Feb-24 10:59N 50°58' E 001°14'511.1
2018-Feb-24 10:29N 51°01' E 001°21'510.5
2018-Feb-24 10:00N 51°04' E 001°27'5 9.6
2018-Feb-24 09:30N 51°07' E 001°33'4 8.6
2018-Feb-24 09:00N 51°09' E 001°39'4 8.3
2018-Feb-24 08:31N 51°12' E 001°44'5 8.8
2018-Feb-24 07:59N 51°16' E 001°48'4 8.5
2018-Feb-24 07:30N 51°19' E 001°52'4 8.5
2018-Feb-24 07:00N 51°23' E 001°56'4 8.5
2018-Feb-24 06:30N 51°25' E 002°02'5 9.3
2018-Feb-24 05:59N 51°23' E 002°09'5 9.3
2018-Feb-24 05:30N 51°21' E 002°16'4 8.8
2018-Feb-24 05:00N 51°22' E 002°23'5 9.5
2018-Feb-24 04:30N 51°23' E 002°30'5 9.8
2018-Feb-24 04:00N 51°23' E 002°38'5 8.9
2018-Feb-24 03:28N 51°22' E 002°46'510.2
2018-Feb-24 03:00N 51°21' E 002°53'510.8
2018-Feb-24 02:30N 51°22' E 003°02'611.0
2018-Feb-24 02:00N 51°23' E 003°11'510.8
2018-Feb-24 01:30N 51°24' E 003°19'611.6
2018-Feb-24 01:00N 51°25' E 003°28'510.5
2018-Feb-24 00:30N 51°25' E 003°36'511.1
2018-Feb-24 00:00N 51°23' E 003°44'612.0
2018-Feb-23 23:30N 51°21' E 003°53'612.0
2018-Feb-23 23:00N 51°26' E 003°59'611.1
2018-Feb-23 22:30N 51°22' E 004°05'5 9.6
2018-Feb-23 22:01N 51°23' E 004°13'510.6
2018-Feb-23 21:31N 51°18' E 004°17'4 7.4
2018-Feb-23 21:00N 51°15' E 004°20'3 6.2
2018-Feb-23 20:30N 51°13' E 004°23'2 4.4
2018-Feb-23 19:57N 51°11' E 004°20'0 0.0
2018-Feb-23 19:27N 51°11' E 004°20'0 0.0
2018-Feb-23 18:57N 51°11' E 004°20'0 0.0
2018-Feb-23 18:30N 51°11' E 004°20'0 0.0
2018-Feb-23 18:00N 51°11' E 004°20'0 0.0
2018-Feb-23 17:24N 51°11' E 004°20'0 0.0
2018-Feb-23 16:57N 51°11' E 004°20'0 0.0
2018-Feb-23 16:24N 51°11' E 004°20'0 0.0
2018-Feb-23 16:00N 51°11' E 004°20'0 0.0
2018-Feb-23 15:27N 51°11' E 004°20'0 0.0
2018-Feb-23 14:57N 51°11' E 004°20'0 0.0
2018-Feb-23 14:15N 51°11' E 004°20'0 0.0
2018-Feb-23 13:51N 51°11' E 004°20'0 0.0
2018-Feb-23 13:24N 51°11' E 004°20'0 0.0
2018-Feb-23 13:00N 51°11' E 004°20'0 0.0
2018-Feb-23 12:27N 51°11' E 004°20'0 0.0
2018-Feb-23 12:00N 51°11' E 004°20'0 0.0
2018-Feb-23 11:24N 51°11' E 004°20'0 0.0
2018-Feb-23 11:00N 51°11' E 004°20'0 0.0
2018-Feb-23 10:30N 51°11' E 004°20'0 0.0
2018-Feb-23 09:57N 51°11' E 004°20'0 0.0
2018-Feb-23 09:30N 51°11' E 004°20'0 0.0
2018-Feb-23 09:00N 51°11' E 004°20'0 0.0
2018-Feb-23 08:27N 51°11' E 004°20'0 0.0
2018-Feb-23 07:57N 51°11' E 004°20'0 0.0
2018-Feb-23 07:30N 51°11' E 004°20'0 0.0
2018-Feb-23 07:00N 51°11' E 004°20'0 0.0
2018-Feb-23 06:27N 51°11' E 004°20'0 0.0
2018-Feb-23 05:54N 51°11' E 004°20'0 0.0
2018-Feb-23 05:24N 51°11' E 004°20'0 0.0
2018-Feb-23 05:00N 51°11' E 004°20'0 0.0
2018-Feb-23 04:30N 51°11' E 004°20'0 0.0
2018-Feb-23 04:00N 51°11' E 004°20'0 0.0
2018-Feb-23 03:27N 51°11' E 004°20'0 0.0
2018-Feb-23 02:57N 51°11' E 004°20'0 0.0
2018-Feb-23 02:27N 51°11' E 004°20'0 0.0
2018-Feb-23 01:51N 51°11' E 004°20'0 0.0
2018-Feb-23 01:30N 51°11' E 004°20'0 0.0
2018-Feb-23 01:00N 51°11' E 004°20'0 0.0
2018-Feb-23 00:30N 51°11' E 004°20'0 0.0
2018-Feb-22 23:57N 51°11' E 004°20'0 0.0
2018-Feb-22 23:30N 51°11' E 004°20'0 0.0
2018-Feb-22 23:00N 51°11' E 004°20'0 0.0
2018-Feb-22 22:27N 51°11' E 004°20'0 0.0
2018-Feb-22 21:12N 51°11' E 004°20'0 0.0
2018-Feb-22 21:00N 51°11' E 004°20'0 0.0
2018-Feb-22 20:30N 51°11' E 004°20'1 1.7
2018-Feb-22 20:00N 51°12' E 004°20'3 6.2
2018-Feb-22 19:31N 51°14' E 004°24'4 8.0
2018-Feb-22 19:01N 51°17' E 004°19'510.2
2018-Feb-22 18:30N 51°21' E 004°15'5 9.6
2018-Feb-22 18:00N 51°22' E 004°07'612.6
2018-Feb-22 17:30N 51°26' E 003°60'713.1
2018-Feb-22 17:00N 51°21' E 003°53'612.3
2018-Feb-22 16:30N 51°23' E 003°43'611.5
2018-Feb-22 16:00N 51°25' E 003°35'611.6
2018-Feb-22 15:30N 51°25' E 003°26'612.3
2018-Feb-22 15:00N 51°24' E 003°16'611.1
2018-Feb-22 14:30N 51°22' E 003°08'510.4
2018-Feb-22 14:00N 51°22' E 002°59'5 9.8
2018-Feb-22 13:29N 51°21' E 002°51'5 8.9
2018-Feb-22 12:59N 51°21' E 002°44'4 8.8
2018-Feb-22 12:30N 51°21' E 002°37'3 5.7
2018-Feb-22 11:58N 51°22' E 002°32'3 6.2
2018-Feb-22 11:30N 51°21' E 002°28'2 5.0
2018-Feb-22 11:00N 51°20' E 002°24'3 5.2
2018-Feb-22 10:30N 51°19' E 002°20'3 6.1
2018-Feb-22 10:00N 51°18' E 002°16'3 6.3
2018-Feb-22 09:30N 51°16' E 002°12'3 5.8
2018-Feb-22 09:00N 51°14' E 002°08'3 5.9
2018-Feb-22 08:30N 51°13' E 002°04'3 6.5
2018-Feb-22 07:59N 51°11' E 001°59'5 8.5
2018-Feb-22 07:27N 51°09' E 001°53'4 8.5
2018-Feb-22 07:00N 51°07' E 001°48'4 8.8
2018-Feb-22 06:30N 51°03' E 001°44'5 9.4
2018-Feb-22 06:00N 50°60' E 001°38'4 7.9
2018-Feb-22 05:30N 50°57' E 001°34'4 8.5
2018-Feb-22 04:59N 50°53' E 001°30'6810.9
2018-Feb-21 22:45N 50°21' W 000°04'511.6
2018-Feb-21 22:19N 50°21' W 000°12'811.2
2018-Feb-21 21:39N 50°23' W 000°24'33 9.6
2018-Feb-21 18:12N 50°30' W 001°15'2 7.8
2018-Feb-21 17:55N 50°30' W 001°18'49 9.6
2018-Feb-21 12:45N 50°25' W 002°36'1011.8
2018-Feb-21 11:56N 50°22' W 002°50'511.7
2018-Feb-21 11:30N 50°21' W 002°58'611.6
2018-Feb-21 11:00N 50°19' W 003°06'611.6
2018-Feb-21 10:30N 50°17' W 003°15'611.6
2018-Feb-21 10:00N 50°15' W 003°23'611.7
2018-Feb-21 09:30N 50°13' W 003°32'612.1
2018-Feb-21 09:00N 50°11' W 003°40'612.0
2018-Feb-21 08:30N 50°09' W 003°49'611.7
2018-Feb-21 08:00N 50°07' W 003°58'611.5
2018-Feb-21 07:30N 50°06' W 004°07'711.3
2018-Feb-21 06:53N 50°04' W 004°17'411.1
2018-Feb-21 06:30N 50°03' W 004°24'610.9
2018-Feb-21 06:00N 50°02' W 004°32'510.8
2018-Feb-21 05:30N 50°00' W 004°40'510.7
2018-Feb-21 05:00N 49°59' W 004°48'510.7
2018-Feb-21 04:30N 49°58' W 004°56'510.5
2018-Feb-21 04:00N 49°56' W 005°04'510.0
2018-Feb-21 03:30N 49°55' W 005°12'6 9.5
2018-Feb-21 02:49N 49°55' W 005°22'3 9.8
2018-Feb-21 02:30N 49°55' W 005°27'128 9.9
2018-Feb-20 13:31N 51°22' W 007°55'010.7
2018-Feb-20 13:30N 51°23' W 007°55'510.5
2018-Feb-20 13:00N 51°26' W 008°02'510.7
2018-Feb-20 12:30N 51°29' W 008°08'510.9
2018-Feb-20 12:00N 51°34' W 008°13'510.7
2018-Feb-20 11:30N 51°39' W 008°17'611.4
2018-Feb-20 11:00N 51°44' W 008°16'611.7
2018-Feb-20 10:30N 51°50' W 008°16'4 7.4
2018-Feb-20 10:00N 51°53' W 008°20'4 8.1
2018-Feb-20 09:30N 51°54' W 008°26'1 1.2
2018-Feb-20 09:00N 51°54' W 008°27'0 0.0
2018-Feb-20 08:29N 51°54' W 008°27'0 0.0
2018-Feb-20 07:56N 51°54' W 008°27'0 0.0
2018-Feb-20 07:29N 51°54' W 008°27'0 0.0
2018-Feb-20 06:59N 51°54' W 008°27'0 0.0
2018-Feb-20 06:29N 51°54' W 008°27'0 0.0
2018-Feb-20 05:59N 51°54' W 008°27'0 0.0
2018-Feb-20 05:29N 51°54' W 008°27'0 0.0
2018-Feb-20 04:59N 51°54' W 008°27'0 0.0
2018-Feb-20 04:29N 51°54' W 008°27'0 0.0
2018-Feb-20 03:59N 51°54' W 008°27'0 0.0
2018-Feb-20 03:29N 51°54' W 008°27'0 0.0
2018-Feb-20 02:59N 51°54' W 008°27'0 0.0
2018-Feb-20 02:26N 51°54' W 008°27'0 0.0
2018-Feb-20 01:59N 51°54' W 008°27'0 0.0
2018-Feb-20 01:29N 51°54' W 008°27'0 0.0
2018-Feb-20 00:59N 51°54' W 008°27'0 0.0
2018-Feb-20 00:29N 51°54' W 008°27'0 0.0
2018-Feb-19 23:59N 51°54' W 008°27'0 0.0
2018-Feb-19 23:29N 51°54' W 008°27'0 0.0
2018-Feb-19 22:59N 51°54' W 008°27'0 0.0
2018-Feb-19 22:26N 51°54' W 008°27'0 0.0
2018-Feb-19 21:59N 51°54' W 008°27'0 0.0
2018-Feb-19 21:23N 51°54' W 008°27'0 0.0
2018-Feb-19 20:59N 51°54' W 008°27'0 0.0
2018-Feb-19 20:29N 51°54' W 008°27'0 0.0
2018-Feb-19 19:56N 51°54' W 008°27'0 0.0
2018-Feb-19 19:29N 51°54' W 008°27'0 0.0
2018-Feb-19 18:59N 51°54' W 008°27'0 0.0
2018-Feb-19 18:29N 51°54' W 008°27'0 0.0
2018-Feb-19 17:59N 51°54' W 008°27'0 0.0
2018-Feb-19 17:29N 51°54' W 008°27'0 0.0
2018-Feb-19 16:59N 51°54' W 008°27'0 0.0
2018-Feb-19 16:29N 51°54' W 008°27'0 0.0
2018-Feb-19 15:59N 51°54' W 008°27'0 0.0
2018-Feb-19 15:29N 51°54' W 008°27'0 0.0
2018-Feb-19 14:59N 51°54' W 008°27'0 0.0
2018-Feb-19 14:20N 51°54' W 008°27'0 0.0
2018-Feb-19 13:59N 51°54' W 008°27'0 0.0
2018-Feb-19 13:29N 51°54' W 008°27'0 0.1
2018-Feb-19 12:59N 51°54' W 008°27'0 0.1
2018-Feb-19 12:29N 51°54' W 008°27'0 0.0
2018-Feb-19 11:59N 51°54' W 008°27'0 0.0
2018-Feb-19 11:29N 51°54' W 008°27'0 0.0
2018-Feb-19 10:59N 51°54' W 008°27'0 0.0
2018-Feb-19 10:29N 51°54' W 008°27'0 0.0
2018-Feb-19 09:59N 51°54' W 008°27'0 0.0
2018-Feb-19 09:29N 51°54' W 008°27'0 0.0
2018-Feb-19 08:59N 51°54' W 008°27'0 0.0
2018-Feb-19 08:23N 51°54' W 008°27'0 0.0
2018-Feb-19 07:59N 51°54' W 008°27'0 0.0
2018-Feb-19 07:29N 51°54' W 008°27'0 0.0
2018-Feb-19 06:59N 51°54' W 008°27'0 0.0
2018-Feb-19 06:29N 51°54' W 008°27'0 0.0
2018-Feb-19 05:59N 51°54' W 008°27'0 0.0
2018-Feb-19 05:29N 51°54' W 008°27'0 0.0
2018-Feb-19 04:59N 51°54' W 008°27'0 0.0
2018-Feb-19 04:26N 51°54' W 008°27'0 0.0
2018-Feb-19 03:59N 51°54' W 008°27'0 0.0
2018-Feb-19 03:26N 51°54' W 008°27'0 0.0
2018-Feb-19 02:59N 51°54' W 008°27'0 0.0
2018-Feb-19 02:29N 51°54' W 008°27'0 0.0
2018-Feb-19 01:59N 51°54' W 008°27'0 0.0
2018-Feb-19 01:29N 51°54' W 008°27'0 0.0
2018-Feb-19 00:59N 51°54' W 008°27'0 0.0
2018-Feb-19 00:29N 51°54' W 008°27'0 0.0
2018-Feb-18 23:59N 51°54' W 008°27'0 0.0
2018-Feb-18 23:26N 51°54' W 008°27'0 0.0
2018-Feb-18 22:56N 51°54' W 008°27'0 0.0
2018-Feb-18 22:26N 51°54' W 008°27'0 0.0
2018-Feb-18 21:59N 51°54' W 008°27'0 0.0
2018-Feb-18 21:29N 51°54' W 008°27'0 0.0
2018-Feb-18 20:56N 51°54' W 008°27'0 0.0
2018-Feb-18 20:26N 51°54' W 008°27'0 0.0
2018-Feb-18 19:56N 51°54' W 008°27'0 0.0
2018-Feb-18 19:29N 51°54' W 008°27'0 0.0
2018-Feb-18 18:59N 51°54' W 008°27'0 0.0
2018-Feb-18 18:29N 51°54' W 008°27'0 0.0
2018-Feb-18 17:59N 51°54' W 008°27'0 0.0
2018-Feb-18 17:29N 51°54' W 008°27'0 0.0
2018-Feb-18 16:59N 51°54' W 008°27'0 0.0
2018-Feb-18 16:26N 51°54' W 008°27'0 0.0
2018-Feb-18 15:59N 51°54' W 008°27'0 0.0
2018-Feb-18 15:29N 51°54' W 008°27'0 0.0
2018-Feb-18 14:59N 51°54' W 008°27'0 0.0
2018-Feb-18 14:29N 51°54' W 008°27'0 0.0
2018-Feb-18 13:59N 51°54' W 008°27'0 0.0
2018-Feb-18 13:29N 51°54' W 008°27'0 0.0
2018-Feb-18 12:59N 51°54' W 008°27'0 0.0
2018-Feb-18 12:29N 51°54' W 008°27'0 0.0
2018-Feb-18 11:59N 51°54' W 008°27'0 0.0
2018-Feb-18 11:29N 51°54' W 008°27'0 0.0
2018-Feb-18 10:59N 51°54' W 008°27'0 0.0
2018-Feb-18 10:29N 51°54' W 008°27'0 0.0
2018-Feb-18 09:56N 51°54' W 008°27'0 0.0
2018-Feb-18 09:29N 51°54' W 008°27'0 0.0
2018-Feb-18 08:56N 51°54' W 008°27'0 0.0
2018-Feb-18 08:29N 51°54' W 008°27'0 0.0
2018-Feb-18 07:59N 51°54' W 008°27'0 0.0
2018-Feb-18 07:29N 51°54' W 008°27'0 0.0
2018-Feb-18 06:56N 51°54' W 008°27'0 0.0
2018-Feb-18 06:29N 51°54' W 008°27'0 0.0
2018-Feb-18 05:59N 51°54' W 008°27'0 0.0
2018-Feb-18 05:29N 51°54' W 008°27'0 0.0
2018-Feb-18 04:59N 51°54' W 008°27'0 0.0
2018-Feb-18 04:29N 51°54' W 008°27'0 0.0
2018-Feb-18 03:59N 51°54' W 008°27'0 0.0
2018-Feb-18 03:29N 51°54' W 008°27'0 0.0
2018-Feb-18 02:59N 51°54' W 008°27'0 0.0
2018-Feb-18 02:29N 51°54' W 008°27'0 0.0
2018-Feb-18 01:59N 51°54' W 008°27'0 0.0
2018-Feb-18 01:29N 51°54' W 008°27'0 0.0
2018-Feb-18 00:59N 51°54' W 008°27'0 0.0
2018-Feb-18 00:29N 51°54' W 008°27'0 0.0
2018-Feb-17 23:59N 51°54' W 008°27'0 0.0
2018-Feb-17 23:29N 51°54' W 008°27'0 0.0
2018-Feb-17 22:59N 51°54' W 008°27'0 0.0
2018-Feb-17 22:29N 51°54' W 008°27'0 0.0
2018-Feb-17 21:59N 51°54' W 008°27'0 0.0
2018-Feb-17 21:29N 51°54' W 008°27'0 0.0
2018-Feb-17 20:56N 51°54' W 008°27'0 0.0
2018-Feb-17 20:29N 51°54' W 008°27'0 0.0
2018-Feb-17 19:56N 51°54' W 008°27'0 0.0
2018-Feb-17 19:26N 51°54' W 008°27'0 0.0
2018-Feb-17 18:56N 51°54' W 008°27'0 0.0
2018-Feb-17 18:26N 51°54' W 008°27'0 0.0
2018-Feb-17 17:56N 51°54' W 008°27'0 0.0
2018-Feb-17 17:29N 51°54' W 008°27'0 0.0
2018-Feb-17 16:59N 51°54' W 008°27'0 0.0
2018-Feb-17 16:29N 51°54' W 008°27'0 0.0
2018-Feb-17 15:59N 51°54' W 008°27'0 0.0
2018-Feb-17 15:29N 51°54' W 008°27'0 0.0
2018-Feb-17 14:59N 51°54' W 008°27'0 0.9
2018-Feb-17 14:30N 51°54' W 008°27'3 6.7
2018-Feb-17 14:00N 51°53' W 008°22'3 6.9
2018-Feb-17 13:31N 51°51' W 008°17'1 1.8
2018-Feb-17 12:59N 51°50' W 008°16'0 0.1
2018-Feb-17 12:29N 51°50' W 008°16'0 0.0
2018-Feb-17 11:59N 51°50' W 008°16'0 0.1
2018-Feb-17 11:29N 51°50' W 008°16'0 0.0
2018-Feb-17 10:59N 51°50' W 008°16'0 0.2
2018-Feb-17 10:29N 51°50' W 008°16'0 0.1
2018-Feb-17 09:59N 51°50' W 008°16'0 0.1
2018-Feb-17 09:29N 51°50' W 008°16'0 0.0
2018-Feb-17 09:00N 51°50' W 008°16'1 1.8
2018-Feb-17 08:31N 51°49' W 008°16'1 3.0
2018-Feb-17 08:01N 51°48' W 008°16'4 8.3
2018-Feb-17 07:30N 51°44' W 008°13'4 7.6
2018-Feb-17 07:00N 51°44' W 008°07'3 6.6
2018-Feb-17 06:30N 51°44' W 008°02'4 8.2
2018-Feb-17 06:00N 51°43' W 007°55'4 8.8
2018-Feb-17 05:30N 51°42' W 007°48'4 8.6
2018-Feb-17 05:00N 51°41' W 007°42'4 8.5
2018-Feb-17 04:30N 51°38' W 007°37'5 9.1
2018-Feb-17 04:00N 51°34' W 007°33'5 9.1
2018-Feb-17 03:30N 51°31' W 007°29'129 8.4
2018-Feb-16 12:07N 49°57' W 005°10'110.0
2018-Feb-16 11:58N 49°58' W 005°08'510.1
2018-Feb-16 11:26N 50°01' W 005°02'5 1.2
2018-Feb-16 07:29N 50°06' W 005°03'0 0.0
2018-Feb-16 06:59N 50°06' W 005°03'0 0.0
2018-Feb-16 06:17N 50°06' W 005°03'0 0.0
2018-Feb-15 22:04N 50°06' W 005°03'0 0.0
2018-Feb-15 20:25N 50°06' W 005°03'0 0.0
2018-Feb-15 18:49N 50°06' W 005°03'0 0.0
2018-Feb-15 18:28N 50°06' W 005°03'0 0.1
2018-Feb-15 17:52N 50°06' W 005°03'0 0.0
2018-Feb-15 17:28N 50°06' W 005°03'0 0.0
2018-Feb-15 16:49N 50°06' W 005°03'0 0.0
2018-Feb-15 16:28N 50°06' W 005°03'0 0.0
2018-Feb-15 15:16N 50°06' W 005°03'0 0.0
2018-Feb-15 14:55N 50°06' W 005°03'1 0.1
2018-Feb-15 09:50N 50°06' W 005°03'3 8.6
2018-Feb-15 09:27N 50°07' W 004°58'4 8.9
2018-Feb-15 08:58N 50°07' W 004°51'4 8.8
2018-Feb-15 08:30N 50°08' W 004°45'4 8.6
2018-Feb-15 08:01N 50°08' W 004°38'4 8.2
2018-Feb-15 07:30N 50°08' W 004°31'4 7.8
2018-Feb-15 07:00N 50°08' W 004°25'4 7.5
2018-Feb-15 06:29N 50°08' W 004°19'3 7.2
2018-Feb-15 06:00N 50°09' W 004°14'3 7.0
2018-Feb-15 05:30N 50°09' W 004°09'3 6.7
2018-Feb-15 05:00N 50°09' W 004°03'4 6.8
2018-Feb-15 04:30N 50°09' W 003°58'  

Dump ship's entire track history